Date,TemperatureHighF,TemperatureAvgF,TemperatureLowF,DewpointHighF,DewpointAvgF,DewpointLowF,HumidityHigh,HumidityAvg,HumidityLow,PressureMaxIn,PressureMinIn,WindSpeedMaxMPH,WindSpeedAvgMPH,GustSpeedMaxMPH,PrecipitationSumIn
2013-1-1,35.1,28.9,15.5,27.0,15.4,3.3,75,57,44,29.92,29.68,33,11,34,0.00
2013-1-2,25.2,16.5,5.6,16.4,5.9,-6.5,71,62,55,30.12,29.90,28,8,30,0.00
2013-1-3,21.9,12.5,2.7,8.4,-2.4,-7.0,67,52,30,30.15,30.00,20,6,21,0.00
2013-1-4,36.3,28.7,17.3,23.0,19.1,8.2,84,68,56,30.00,29.81,31,7,33,0.00
2013-1-5,38.0,33.3,26.2,24.0,19.6,15.4,68,57,43,30.26,29.82,27,8,32,0.00
2013-1-6,40.2,32.0,23.2,28.0,24.0,15.4,90,73,61,30.23,29.94,18,5,19,0.07
2013-1-7,33.9,31.6,26.6,29.8,20.8,12.2,86,65,43,30.41,29.96,27,6,27,0.00
2013-1-8,43.3,34.3,24.2,27.2,24.2,18.6,85,67,49,30.38,30.27,22,8,23,0.00
2013-1-9,43.4,36.0,27.9,34.0,26.3,21.3,77,68,55,30.42,30.00,29,6,29,0.00
2013-1-10,43.7,39.8,32.9,29.7,25.2,22.9,69,56,47,30.55,30.01,39,13,40,0.00
2013-1-11,37.6,34.1,29.3,34.4,27.2,23.0,94,76,61,30.54,30.24,10,4,11,0.69
2013-1-12,41.2,38.4,35.9,40.0,37.2,34.4,96,95,94,30.25,30.15,10,2,10,0.39
2013-1-13,47.7,43.9,40.0,46.6,42.8,39.0,96,96,96,30.17,29.99,17,5,17,0.08
2013-1-14,58.7,47.9,38.0,50.1,39.7,25.6,97,76,43,30.26,29.83,28,7,28,0.03
2013-1-15,38.0,34.7,31.8,26.9,24.0,22.3,69,65,62,30.30,30.25,15,3,15,0.00
2013-1-16,32.1,30.8,28.6,30.2,27.2,21.6,95,87,66,30.26,29.82,8,1,8,0.00
2013-1-17,40.1,32.2,26.1,32.6,24.5,6.6,95,75,43,30.12,29.83,26,5,26,0.37
2013-1-18,26.1,18.4,12.1,8.1,-0.2,-5.3,57,44,31,30.45,30.06,35,7,35,0.00
2013-1-19,44.4,34.0,18.3,29.0,19.7,5.6,72,56,45,30.39,29.87,27,8,32,0.02
2013-1-20,50.1,38.8,27.2,31.4,23.5,9.0,73,55,26,29.91,29.52,42,12,43,0.00
2013-1-21,27.1,22.4,18.3,18.7,8.5,0.1,90,57,39,30.09,29.81,33,6,38,0.00
2013-1-22,21.7,17.9,10.2,17.9,8.1,-3.7,91,67,37,30.08,29.78,28,7,28,0.00
2013-1-23,11.8,7.6,1.4,-0.5,-10.1,-14.8,64,44,30,30.16,30.07,28,8,30,0.00
2013-1-24,16.6,7.0,-2.3,-7.0,-10.8,-12.6,63,44,30,30.25,30.09,35,11,39,0.00
2013-1-25,20.2,13.1,5.6,8.7,-5.8,-9.8,76,43,29,30.34,30.10,29,7,29,0.00
2013-1-26,20.4,14.9,10.1,9.8,1.5,-8.1,84,58,32,30.23,30.03,33,9,33,0.00
2013-1-27,27.9,18.9,12.2,3.8,-0.2,-4.8,64,45,26,30.49,30.21,30,10,30,0.00
2013-1-28,27.9,21.6,16.7,21.0,9.2,-2.7,91,61,39,30.47,30.06,15,3,16,0.00
2013-1-29,33.7,28.2,22.6,30.4,25.2,20.4,94,88,80,30.22,30.06,7,2,9,0.12
2013-1-30,58.2,44.7,32.0,55.6,43.1,30.5,96,94,90,30.18,29.44,34,7,34,0.60
2013-1-31,60.9,44.7,29.2,57.8,33.9,13.9,95,68,42,29.56,28.93,50,17,55,0.49